UAE6W OPIS-OMDB
Flight info
| Callsign | UAE6W |
|---|---|
| Flight time | 2h 44m |
| Altitude | 38000 |
| Route | KALMI J139 HANGU G325 PG T385 TAPDO A454 PASOV B540 KUPMA/N0472F240 B540 MIVEK P574 IMPED |
| Aircraft | B77W/H-SDE1E2E3FGHIJ2J3J4J5M1RWXY/LB1D1 |
Departure
| Time | 2026-05-07 23:24 |
|---|---|
| Airport | Islamabad International Airport (OPIS) |
Arrival
| Time | 2026-05-08 02:08 |
|---|---|
| Airport | Dubai International Airport (OMDB) |
| Time | Latitude | Longitude | Altitude | Speed | Heading |
|---|---|---|---|---|---|
| 2026-05-07 22:46 | 33.55469 | 72.82968 | 1776 ft | 0 kts | 144° |
| 2026-05-07 23:09 | 33.55488 | 72.82952 | 1773 ft | 4 kts | 149° |
| 2026-05-07 23:10 | 33.55512 | 72.82937 | 1775 ft | 4 kts | 158° |
| 2026-05-07 23:10 | 33.55538 | 72.82927 | 1773 ft | 4 kts | 170° |
| 2026-05-07 23:10 | 33.55564 | 72.82926 | 1773 ft | 4 kts | 200° |
| 2026-05-07 23:10 | 33.55576 | 72.82935 | 1773 ft | 0 kts | 235° |
| 2026-05-07 23:14 | 33.55576 | 72.82934 | 1773 ft | 0 kts | 235° |
| 2026-05-07 23:14 | 33.55560 | 72.82907 | 1777 ft | 6 kts | 235° |
| 2026-05-07 23:14 | 33.55534 | 72.82862 | 1778 ft | 7 kts | 235° |
| 2026-05-07 23:14 | 33.55506 | 72.82814 | 1777 ft | 7 kts | 235° |
| 2026-05-07 23:15 | 33.55477 | 72.82764 | 1777 ft | 7 kts | 235° |
| 2026-05-07 23:15 | 33.55458 | 72.82730 | 1778 ft | 8 kts | 235° |
| 2026-05-07 23:15 | 33.55427 | 72.82677 | 1779 ft | 8 kts | 235° |
| 2026-05-07 23:15 | 33.55386 | 72.82634 | 1776 ft | 8 kts | 201° |
| 2026-05-07 23:16 | 33.55325 | 72.82617 | 1777 ft | 10 kts | 191° |
| 2026-05-07 23:16 | 33.55259 | 72.82601 | 1776 ft | 10 kts | 191° |
| 2026-05-07 23:16 | 33.55198 | 72.82620 | 1776 ft | 10 kts | 137° |
| 2026-05-07 23:16 | 33.55177 | 72.82696 | 1775 ft | 10 kts | 100° |
| 2026-05-07 23:17 | 33.55163 | 72.82792 | 1775 ft | 13 kts | 100° |
| 2026-05-07 23:17 | 33.55145 | 72.82913 | 1775 ft | 16 kts | 100° |
| 2026-05-07 23:17 | 33.55123 | 72.83060 | 1776 ft | 19 kts | 100° |
| 2026-05-07 23:17 | 33.55099 | 72.83215 | 1776 ft | 19 kts | 100° |
| 2026-05-07 23:18 | 33.55075 | 72.83371 | 1774 ft | 19 kts | 100° |
| 2026-05-07 23:18 | 33.55053 | 72.83522 | 1777 ft | 17 kts | 99° |
| 2026-05-07 23:18 | 33.55033 | 72.83659 | 1776 ft | 17 kts | 101° |
| 2026-05-07 23:18 | 33.55011 | 72.83795 | 1776 ft | 17 kts | 101° |
| 2026-05-07 23:19 | 33.54992 | 72.83919 | 1776 ft | 11 kts | 103° |
| 2026-05-07 23:19 | 33.54934 | 72.83976 | 1775 ft | 13 kts | 174° |
| 2026-05-07 23:19 | 33.54830 | 72.83957 | 1772 ft | 8 kts | 194° |
| 2026-05-07 23:19 | 33.54796 | 72.83908 | 1773 ft | 8 kts | 255° |
| 2026-05-07 23:20 | 33.54814 | 72.83771 | 1770 ft | 31 kts | 281° |
| 2026-05-07 23:20 | 33.54872 | 72.83399 | 1771 ft | 56 kts | 281° |
| 2026-05-07 23:20 | 33.54943 | 72.82947 | 1766 ft | 54 kts | 281° |
| 2026-05-07 23:20 | 33.55011 | 72.82515 | 1768 ft | 51 kts | 281° |
| 2026-05-07 23:21 | 33.55074 | 72.82104 | 1766 ft | 49 kts | 280° |
| 2026-05-07 23:21 | 33.55134 | 72.81716 | 1763 ft | 46 kts | 281° |
| 2026-05-07 23:21 | 33.55192 | 72.81344 | 1763 ft | 44 kts | 281° |
| 2026-05-07 23:21 | 33.55247 | 72.80990 | 1765 ft | 42 kts | 280° |
| 2026-05-07 23:22 | 33.55289 | 72.80727 | 1765 ft | 15 kts | 282° |
| 2026-05-07 23:22 | 33.55256 | 72.80659 | 1765 ft | 11 kts | 192° |
| 2026-05-07 23:22 | 33.55181 | 72.80639 | 1764 ft | 12 kts | 192° |
| 2026-05-07 23:22 | 33.55109 | 72.80637 | 1762 ft | 4 kts | 143° |
| 2026-05-07 23:23 | 33.55103 | 72.80672 | 1764 ft | 4 kts | 99° |
| 2026-05-07 23:23 | 33.55098 | 72.80709 | 1760 ft | 4 kts | 100° |
| 2026-05-07 23:23 | 33.55073 | 72.80860 | 1762 ft | 40 kts | 101° |
| 2026-05-07 23:23 | 33.54972 | 72.81510 | 1764 ft | 118 kts | 101° |
| 2026-05-07 23:24 | 33.54778 | 72.82752 | 1780 ft | 179 kts | 100° |
| 2026-05-07 23:24 | 33.54543 | 72.84266 | 2346 ft | 191 kts | 101° |
| 2026-05-07 23:24 | 33.54287 | 72.85884 | 2996 ft | 200 kts | 102° |
| 2026-05-07 23:24 | 33.54034 | 72.87539 | 3725 ft | 205 kts | 102° |
| 2026-05-07 23:25 | 33.53751 | 72.89332 | 4032 ft | 234 kts | 102° |
| 2026-05-07 23:25 | 33.53334 | 72.91313 | 4360 ft | 254 kts | 117° |
| 2026-05-07 23:25 | 33.52137 | 72.92938 | 4836 ft | 270 kts | 150° |
| 2026-05-07 23:25 | 33.50326 | 72.93591 | 5499 ft | 279 kts | 181° |
| 2026-05-07 23:26 | 33.48417 | 72.93163 | 6263 ft | 283 kts | 201° |
| 2026-05-07 23:26 | 33.46585 | 72.92291 | 6842 ft | 285 kts | 206° |
| 2026-05-07 23:26 | 33.44753 | 72.91341 | 7027 ft | 290 kts | 206° |
| 2026-05-07 23:26 | 33.42903 | 72.90406 | 7579 ft | 294 kts | 205° |
| 2026-05-07 23:27 | 33.39121 | 72.88561 | 9513 ft | 294 kts | 205° |
| 2026-05-07 23:27 | 33.37374 | 72.87320 | 10142 ft | 295 kts | 229° |
| 2026-05-07 23:27 | 33.36245 | 72.85228 | 10477 ft | 312 kts | 255° |
| 2026-05-07 23:28 | 33.36054 | 72.82582 | 10689 ft | 331 kts | 279° |
| 2026-05-07 23:28 | 33.36475 | 72.79777 | 10863 ft | 356 kts | 283° |
| 2026-05-07 23:28 | 33.36970 | 72.76806 | 11448 ft | 370 kts | 283° |
| 2026-05-07 23:28 | 33.37478 | 72.73739 | 12248 ft | 379 kts | 283° |
| 2026-05-07 23:29 | 33.37985 | 72.70621 | 13208 ft | 385 kts | 283° |
| 2026-05-07 23:29 | 33.38490 | 72.67450 | 14107 ft | 390 kts | 283° |
| 2026-05-07 23:29 | 33.38996 | 72.64237 | 14942 ft | 396 kts | 283° |
| 2026-05-07 23:29 | 33.39504 | 72.60975 | 15801 ft | 402 kts | 283° |
| 2026-05-07 23:30 | 33.40018 | 72.57667 | 16670 ft | 405 kts | 283° |
| 2026-05-07 23:30 | 33.40813 | 72.54456 | 17333 ft | 406 kts | 298° |
| 2026-05-07 23:30 | 33.42466 | 72.51693 | 18074 ft | 410 kts | 316° |
| 2026-05-07 23:30 | 33.44720 | 72.49586 | 18869 ft | 412 kts | 328° |
| 2026-05-07 23:31 | 33.47128 | 72.47770 | 19646 ft | 416 kts | 328° |
| 2026-05-07 23:31 | 33.49581 | 72.45867 | 20348 ft | 423 kts | 327° |
| 2026-05-07 23:31 | 33.51948 | 72.43758 | 20920 ft | 428 kts | 316° |
| 2026-05-07 23:31 | 33.53686 | 72.40827 | 21550 ft | 438 kts | 297° |
| 2026-05-07 23:32 | 33.54692 | 72.37361 | 22341 ft | 444 kts | 283° |
| 2026-05-07 23:32 | 33.54937 | 72.33665 | 23064 ft | 449 kts | 272° |
| 2026-05-07 23:32 | 33.54910 | 72.29895 | 23636 ft | 456 kts | 271° |
| 2026-05-07 23:32 | 33.54853 | 72.26074 | 24214 ft | 460 kts | 270° |
| 2026-05-07 23:33 | 33.54808 | 72.22233 | 24961 ft | 460 kts | 271° |
| 2026-05-07 23:33 | 33.54785 | 72.18391 | 25667 ft | 462 kts | 271° |
| 2026-05-07 23:33 | 33.54783 | 72.14526 | 26239 ft | 466 kts | 271° |
| 2026-05-07 23:33 | 33.54790 | 72.10611 | 26766 ft | 472 kts | 271° |
| 2026-05-07 23:34 | 33.54798 | 72.06663 | 27309 ft | 476 kts | 271° |
| 2026-05-07 23:34 | 33.54800 | 72.02683 | 27862 ft | 479 kts | 271° |
| 2026-05-07 23:34 | 33.54678 | 71.98671 | 28390 ft | 484 kts | 268° |
| 2026-05-07 23:34 | 33.54405 | 71.94635 | 28892 ft | 487 kts | 266° |
| 2026-05-07 23:35 | 33.54108 | 71.90572 | 29360 ft | 490 kts | 266° |
| 2026-05-07 23:35 | 33.53841 | 71.86458 | 29696 ft | 496 kts | 266° |
| 2026-05-07 23:35 | 33.53597 | 71.82321 | 30047 ft | 500 kts | 267° |
| 2026-05-07 23:35 | 33.53360 | 71.78169 | 30575 ft | 497 kts | 267° |
| 2026-05-07 23:36 | 33.53125 | 71.74061 | 31313 ft | 490 kts | 268° |
| 2026-05-07 23:36 | 33.52891 | 71.70015 | 32071 ft | 483 kts | 268° |
| 2026-05-07 23:36 | 33.52658 | 71.66024 | 32745 ft | 478 kts | 268° |
| 2026-05-07 23:36 | 33.52425 | 71.62066 | 33343 ft | 475 kts | 268° |
| 2026-05-07 23:37 | 33.52191 | 71.58129 | 33888 ft | 472 kts | 268° |
| 2026-05-07 23:37 | 33.51960 | 71.54268 | 34458 ft | 465 kts | 269° |
| 2026-05-07 23:37 | 33.51730 | 71.50448 | 35203 ft | 456 kts | 269° |
| 2026-05-07 23:37 | 33.51502 | 71.46661 | 35571 ft | 456 kts | 269° |
| 2026-05-07 23:38 | 33.51272 | 71.42857 | 35819 ft | 459 kts | 269° |
| 2026-05-07 23:38 | 33.51037 | 71.39048 | 36131 ft | 459 kts | 269° |
| 2026-05-07 23:38 | 33.50800 | 71.35239 | 36533 ft | 456 kts | 269° |
| 2026-05-07 23:38 | 33.50563 | 71.31452 | 36886 ft | 455 kts | 269° |
| 2026-05-07 23:39 | 33.50327 | 71.27676 | 37296 ft | 453 kts | 269° |
| 2026-05-07 23:39 | 33.50090 | 71.23921 | 37655 ft | 451 kts | 269° |
| 2026-05-07 23:39 | 33.49853 | 71.20175 | 37940 ft | 452 kts | 269° |
| 2026-05-07 23:39 | 33.49615 | 71.16401 | 37972 ft | 456 kts | 269° |
| 2026-05-07 23:40 | 33.49132 | 71.08831 | 38011 ft | 454 kts | 269° |
| 2026-05-07 23:40 | 33.48640 | 71.05110 | 38008 ft | 456 kts | 256° |
| 2026-05-07 23:40 | 33.47303 | 71.01635 | 38033 ft | 466 kts | 243° |
| 2026-05-07 23:41 | 33.45338 | 70.98507 | 38028 ft | 475 kts | 232° |
| 2026-05-07 23:41 | 33.42790 | 70.95933 | 37999 ft | 485 kts | 218° |
| 2026-05-07 23:41 | 33.36995 | 70.91713 | 38014 ft | 489 kts | 216° |
| 2026-05-07 23:42 | 33.31144 | 70.87518 | 37987 ft | 490 kts | 217° |
| 2026-05-07 23:42 | 33.25358 | 70.83258 | 37992 ft | 491 kts | 218° |
| 2026-05-07 23:43 | 33.19515 | 70.78907 | 37969 ft | 491 kts | 218° |
| 2026-05-07 23:43 | 33.13756 | 70.74614 | 37980 ft | 490 kts | 218° |
| 2026-05-07 23:44 | 33.07967 | 70.70311 | 37959 ft | 490 kts | 218° |
| 2026-05-07 23:44 | 33.02173 | 70.66018 | 37962 ft | 490 kts | 218° |
| 2026-05-07 23:45 | 32.96391 | 70.61738 | 37949 ft | 489 kts | 218° |
| 2026-05-07 23:45 | 32.90622 | 70.57445 | 37943 ft | 488 kts | 219° |
| 2026-05-07 23:46 | 32.84910 | 70.53076 | 37927 ft | 488 kts | 220° |
| 2026-05-07 23:46 | 32.79195 | 70.48699 | 37949 ft | 488 kts | 220° |
| 2026-05-07 23:47 | 32.73470 | 70.44340 | 37960 ft | 489 kts | 220° |
| 2026-05-07 23:47 | 32.67729 | 70.39981 | 37961 ft | 490 kts | 220° |
| 2026-05-07 23:48 | 32.61958 | 70.35635 | 37935 ft | 492 kts | 219° |
| 2026-05-07 23:48 | 32.56081 | 70.31531 | 37974 ft | 494 kts | 218° |
| 2026-05-07 23:49 | 32.50132 | 70.27444 | 37969 ft | 494 kts | 218° |
| 2026-05-07 23:49 | 32.44202 | 70.23320 | 37971 ft | 494 kts | 218° |
| 2026-05-07 23:50 | 32.38280 | 70.19192 | 37966 ft | 493 kts | 218° |
| 2026-05-07 23:50 | 32.32391 | 70.15031 | 37971 ft | 492 kts | 219° |
| 2026-05-07 23:51 | 32.26555 | 70.10806 | 37962 ft | 491 kts | 219° |
| 2026-05-07 23:51 | 32.20730 | 70.06584 | 37983 ft | 490 kts | 219° |
| 2026-05-07 23:52 | 32.14913 | 70.02393 | 37979 ft | 490 kts | 219° |
| 2026-05-07 23:52 | 32.09087 | 69.98212 | 37981 ft | 490 kts | 219° |
| 2026-05-07 23:53 | 32.03292 | 69.94061 | 37980 ft | 490 kts | 219° |
| 2026-05-07 23:53 | 31.97461 | 69.89892 | 37996 ft | 489 kts | 219° |
| 2026-05-07 23:54 | 31.91644 | 69.85736 | 37977 ft | 489 kts | 219° |
| 2026-05-07 23:54 | 31.85824 | 69.81573 | 37994 ft | 489 kts | 219° |
| 2026-05-07 23:55 | 31.80011 | 69.77435 | 38033 ft | 488 kts | 219° |
| 2026-05-07 23:55 | 31.75176 | 69.74001 | 38010 ft | 488 kts | 219° |
| 2026-05-07 23:56 | 31.69374 | 69.69881 | 38037 ft | 487 kts | 219° |
| 2026-05-07 23:56 | 31.63586 | 69.65772 | 38041 ft | 486 kts | 219° |
| 2026-05-07 23:57 | 31.57797 | 69.61673 | 38041 ft | 485 kts | 219° |
| 2026-05-07 23:57 | 31.52011 | 69.57581 | 38045 ft | 485 kts | 219° |
| 2026-05-07 23:58 | 31.46233 | 69.53497 | 38031 ft | 484 kts | 219° |
| 2026-05-07 23:58 | 31.40512 | 69.49461 | 38046 ft | 483 kts | 219° |
| 2026-05-07 23:59 | 31.35082 | 69.44997 | 38067 ft | 471 kts | 229° |
| 2026-05-07 23:59 | 31.30515 | 69.39647 | 38069 ft | 462 kts | 236° |
| 2026-05-08 00:00 | 31.26193 | 69.34064 | 38072 ft | 463 kts | 236° |
| 2026-05-08 00:00 | 31.21856 | 69.28494 | 38076 ft | 463 kts | 236° |
| 2026-05-08 00:01 | 31.17486 | 69.22923 | 38051 ft | 464 kts | 235° |
| 2026-05-08 00:01 | 31.13111 | 69.17373 | 38064 ft | 463 kts | 235° |
| 2026-05-08 00:02 | 31.08748 | 69.11842 | 38059 ft | 463 kts | 235° |
| 2026-05-08 00:02 | 31.04379 | 69.06310 | 38064 ft | 463 kts | 235° |
| 2026-05-08 00:03 | 31.00008 | 69.00788 | 38073 ft | 462 kts | 235° |
| 2026-05-08 00:03 | 30.95645 | 68.95278 | 38056 ft | 462 kts | 235° |
| 2026-05-08 00:04 | 30.91285 | 68.89784 | 38053 ft | 462 kts | 235° |
| 2026-05-08 00:04 | 30.86950 | 68.84327 | 38055 ft | 462 kts | 235° |
| 2026-05-08 00:05 | 30.82583 | 68.78837 | 38068 ft | 462 kts | 235° |
| 2026-05-08 00:05 | 30.78211 | 68.73351 | 38048 ft | 461 kts | 235° |
| 2026-05-08 00:06 | 30.73845 | 68.67879 | 38055 ft | 461 kts | 235° |
| 2026-05-08 00:06 | 30.69481 | 68.62417 | 38054 ft | 461 kts | 235° |
| 2026-05-08 00:07 | 30.65114 | 68.56960 | 38053 ft | 461 kts | 235° |
| 2026-05-08 00:07 | 30.60744 | 68.51505 | 38026 ft | 461 kts | 234° |
| 2026-05-08 00:08 | 30.56381 | 68.46069 | 38039 ft | 460 kts | 234° |
| 2026-05-08 00:08 | 30.52011 | 68.40632 | 38047 ft | 460 kts | 234° |
| 2026-05-08 00:09 | 30.47665 | 68.35230 | 38028 ft | 461 kts | 234° |
| 2026-05-08 00:09 | 30.43288 | 68.29798 | 38049 ft | 461 kts | 234° |
| 2026-05-08 00:10 | 30.38910 | 68.24373 | 38035 ft | 460 kts | 234° |
| 2026-05-08 00:10 | 30.34533 | 68.18956 | 38028 ft | 461 kts | 234° |
| 2026-05-08 00:11 | 30.30153 | 68.13541 | 38028 ft | 460 kts | 234° |
| 2026-05-08 00:11 | 30.25773 | 68.08140 | 38008 ft | 460 kts | 234° |
| 2026-05-08 00:12 | 30.21358 | 68.02744 | 38005 ft | 463 kts | 234° |
| 2026-05-08 00:12 | 30.16910 | 67.97334 | 37997 ft | 465 kts | 234° |
| 2026-05-08 00:13 | 30.12485 | 67.91966 | 37961 ft | 462 kts | 234° |
| 2026-05-08 00:13 | 30.08067 | 67.86589 | 37969 ft | 460 kts | 234° |
| 2026-05-08 00:14 | 30.03713 | 67.81203 | 37971 ft | 458 kts | 234° |
| 2026-05-08 00:14 | 29.99376 | 67.75816 | 37927 ft | 457 kts | 234° |
| 2026-05-08 00:15 | 29.95048 | 67.70457 | 37932 ft | 456 kts | 234° |
| 2026-05-08 00:15 | 29.90718 | 67.65106 | 37933 ft | 456 kts | 234° |
| 2026-05-08 00:16 | 29.86414 | 67.59797 | 37908 ft | 457 kts | 234° |
| 2026-05-08 00:16 | 29.82070 | 67.54445 | 37902 ft | 458 kts | 234° |
| 2026-05-08 00:17 | 29.77716 | 67.49092 | 37931 ft | 457 kts | 235° |
| 2026-05-08 00:17 | 29.73371 | 67.43753 | 37926 ft | 457 kts | 235° |
| 2026-05-08 00:18 | 29.69019 | 67.38397 | 37949 ft | 459 kts | 234° |
| 2026-05-08 00:18 | 29.64649 | 67.33018 | 37946 ft | 460 kts | 234° |
| 2026-05-08 00:19 | 29.60278 | 67.27644 | 37974 ft | 460 kts | 234° |
| 2026-05-08 00:19 | 29.55905 | 67.22281 | 37981 ft | 458 kts | 235° |
| 2026-05-08 00:20 | 29.51546 | 67.16937 | 37975 ft | 459 kts | 234° |
| 2026-05-08 00:20 | 29.47165 | 67.11575 | 38013 ft | 461 kts | 234° |
| 2026-05-08 00:21 | 29.42775 | 67.06211 | 38004 ft | 461 kts | 235° |
| 2026-05-08 00:21 | 29.38382 | 67.00849 | 38041 ft | 461 kts | 234° |
| 2026-05-08 00:22 | 29.34015 | 66.95526 | 38036 ft | 460 kts | 234° |
| 2026-05-08 00:22 | 29.29629 | 66.90188 | 38042 ft | 459 kts | 234° |
| 2026-05-08 00:23 | 29.25254 | 66.84869 | 38069 ft | 457 kts | 234° |
| 2026-05-08 00:23 | 29.20884 | 66.79563 | 38062 ft | 457 kts | 234° |
| 2026-05-08 00:24 | 29.16513 | 66.74262 | 38073 ft | 458 kts | 234° |
| 2026-05-08 00:24 | 29.12140 | 66.68965 | 38067 ft | 458 kts | 234° |
| 2026-05-08 00:25 | 29.07763 | 66.63671 | 38076 ft | 458 kts | 234° |
| 2026-05-08 00:25 | 29.03411 | 66.58417 | 38078 ft | 458 kts | 234° |
| 2026-05-08 00:26 | 28.99033 | 66.53126 | 38086 ft | 457 kts | 234° |
| 2026-05-08 00:26 | 28.94661 | 66.47843 | 38085 ft | 457 kts | 234° |
| 2026-05-08 00:27 | 28.90290 | 66.42565 | 38084 ft | 457 kts | 234° |
| 2026-05-08 00:27 | 28.85914 | 66.37288 | 38074 ft | 457 kts | 234° |
| 2026-05-08 00:28 | 28.81535 | 66.32015 | 38071 ft | 458 kts | 234° |
| 2026-05-08 00:28 | 28.77154 | 66.26748 | 38057 ft | 458 kts | 234° |
| 2026-05-08 00:29 | 28.72773 | 66.21486 | 38041 ft | 457 kts | 234° |
| 2026-05-08 00:29 | 28.68385 | 66.16223 | 38049 ft | 458 kts | 234° |
| 2026-05-08 00:30 | 28.63992 | 66.10961 | 38033 ft | 459 kts | 234° |
| 2026-05-08 00:30 | 28.59586 | 66.05690 | 38031 ft | 459 kts | 234° |
| 2026-05-08 00:31 | 28.55183 | 66.00431 | 38044 ft | 459 kts | 234° |
| 2026-05-08 00:31 | 28.50800 | 65.95203 | 38011 ft | 459 kts | 234° |
| 2026-05-08 00:32 | 28.46391 | 65.89949 | 38005 ft | 459 kts | 234° |
| 2026-05-08 00:32 | 28.41972 | 65.84690 | 37974 ft | 459 kts | 234° |
| 2026-05-08 00:33 | 28.37551 | 65.79434 | 37979 ft | 460 kts | 234° |
| 2026-05-08 00:33 | 28.33130 | 65.74185 | 38000 ft | 460 kts | 233° |
| 2026-05-08 00:34 | 28.28701 | 65.68936 | 37973 ft | 460 kts | 233° |
| 2026-05-08 00:34 | 28.24272 | 65.63693 | 37960 ft | 460 kts | 233° |
| 2026-05-08 00:35 | 28.19850 | 65.58463 | 37955 ft | 459 kts | 233° |
| 2026-05-08 00:35 | 28.15457 | 65.53274 | 37952 ft | 459 kts | 233° |
| 2026-05-08 00:36 | 28.11040 | 65.48063 | 37939 ft | 458 kts | 233° |
| 2026-05-08 00:36 | 28.06622 | 65.42857 | 37940 ft | 458 kts | 233° |
| 2026-05-08 00:37 | 28.02200 | 65.37655 | 37946 ft | 458 kts | 233° |
| 2026-05-08 00:38 | 27.95565 | 65.29855 | 37936 ft | 459 kts | 233° |
| 2026-05-08 00:38 | 27.91884 | 65.25535 | 37948 ft | 459 kts | 233° |
| 2026-05-08 00:39 | 27.87449 | 65.20331 | 37943 ft | 460 kts | 233° |
| 2026-05-08 00:39 | 27.83004 | 65.15126 | 37933 ft | 460 kts | 233° |
| 2026-05-08 00:40 | 27.78546 | 65.09911 | 37951 ft | 461 kts | 233° |
| 2026-05-08 00:40 | 27.74092 | 65.04707 | 37951 ft | 461 kts | 233° |
| 2026-05-08 00:41 | 27.69633 | 64.99504 | 37946 ft | 461 kts | 232° |
| 2026-05-08 00:41 | 27.65167 | 64.94299 | 37954 ft | 462 kts | 232° |
| 2026-05-08 00:42 | 27.60697 | 64.89095 | 37961 ft | 462 kts | 232° |
| 2026-05-08 00:42 | 27.56251 | 64.83928 | 37961 ft | 462 kts | 232° |
| 2026-05-08 00:43 | 27.51775 | 64.78732 | 37974 ft | 462 kts | 232° |
| 2026-05-08 00:43 | 27.47295 | 64.73536 | 37979 ft | 462 kts | 232° |
| 2026-05-08 00:44 | 27.42815 | 64.68348 | 37972 ft | 462 kts | 232° |
| 2026-05-08 00:44 | 27.38339 | 64.63170 | 37980 ft | 461 kts | 231° |
| 2026-05-08 00:45 | 27.33862 | 64.58000 | 37988 ft | 461 kts | 231° |
| 2026-05-08 00:45 | 27.29386 | 64.52833 | 37979 ft | 461 kts | 231° |
| 2026-05-08 00:46 | 27.24910 | 64.47674 | 37975 ft | 460 kts | 231° |
| 2026-05-08 00:46 | 27.20435 | 64.42524 | 37989 ft | 461 kts | 231° |
| 2026-05-08 00:47 | 27.15955 | 64.37372 | 37991 ft | 461 kts | 231° |
| 2026-05-08 00:47 | 27.11464 | 64.32216 | 37993 ft | 461 kts | 231° |
| 2026-05-08 00:48 | 27.06977 | 64.27069 | 37997 ft | 462 kts | 231° |
| 2026-05-08 00:48 | 27.02475 | 64.21910 | 37981 ft | 462 kts | 230° |
| 2026-05-08 00:49 | 26.98003 | 64.16792 | 37994 ft | 463 kts | 230° |
| 2026-05-08 00:49 | 26.93483 | 64.11635 | 37984 ft | 463 kts | 230° |
| 2026-05-08 00:50 | 26.88937 | 64.06500 | 37976 ft | 464 kts | 230° |
| 2026-05-08 00:50 | 26.84381 | 64.01367 | 37970 ft | 464 kts | 230° |
| 2026-05-08 00:51 | 26.79827 | 63.96237 | 37971 ft | 464 kts | 230° |
| 2026-05-08 00:51 | 26.75272 | 63.91108 | 37958 ft | 464 kts | 230° |
| 2026-05-08 00:52 | 26.70713 | 63.85979 | 37844 ft | 464 kts | 230° |
| 2026-05-08 00:52 | 26.66187 | 63.80894 | 37822 ft | 465 kts | 229° |
| 2026-05-08 00:53 | 26.61615 | 63.75761 | 37836 ft | 467 kts | 229° |
| 2026-05-08 00:53 | 26.57017 | 63.70607 | 37824 ft | 469 kts | 229° |
| 2026-05-08 00:54 | 26.52402 | 63.65441 | 37820 ft | 470 kts | 229° |
| 2026-05-08 00:54 | 26.47775 | 63.60268 | 37808 ft | 470 kts | 229° |
| 2026-05-08 00:55 | 26.43153 | 63.55107 | 37813 ft | 470 kts | 229° |
| 2026-05-08 00:55 | 26.38534 | 63.49954 | 37799 ft | 469 kts | 229° |
| 2026-05-08 00:56 | 26.33924 | 63.44818 | 37791 ft | 468 kts | 229° |
| 2026-05-08 00:56 | 26.29321 | 63.39696 | 37786 ft | 467 kts | 229° |
| 2026-05-08 00:57 | 26.24722 | 63.34584 | 37773 ft | 467 kts | 229° |
| 2026-05-08 00:57 | 26.20121 | 63.29475 | 37780 ft | 467 kts | 229° |
| 2026-05-08 00:58 | 26.15513 | 63.24365 | 37767 ft | 467 kts | 229° |
| 2026-05-08 00:58 | 26.10905 | 63.19260 | 37752 ft | 468 kts | 229° |
| 2026-05-08 00:59 | 26.06318 | 63.14184 | 37757 ft | 468 kts | 229° |
| 2026-05-08 00:59 | 26.01696 | 63.09075 | 37746 ft | 468 kts | 228° |
| 2026-05-08 01:00 | 25.97073 | 63.03967 | 37731 ft | 469 kts | 228° |
| 2026-05-08 01:00 | 25.92452 | 62.98853 | 37735 ft | 469 kts | 228° |
| 2026-05-08 01:01 | 25.87825 | 62.93736 | 37737 ft | 470 kts | 228° |
| 2026-05-08 01:01 | 25.83189 | 62.88614 | 37722 ft | 470 kts | 228° |
| 2026-05-08 01:02 | 25.78548 | 62.83494 | 37726 ft | 470 kts | 228° |
| 2026-05-08 01:02 | 25.73902 | 62.78375 | 37718 ft | 471 kts | 228° |
| 2026-05-08 01:03 | 25.69252 | 62.73258 | 37729 ft | 471 kts | 228° |
| 2026-05-08 01:03 | 25.64595 | 62.68138 | 37722 ft | 471 kts | 228° |
| 2026-05-08 01:04 | 25.59944 | 62.63032 | 37719 ft | 471 kts | 228° |
| 2026-05-08 01:04 | 25.55286 | 62.57922 | 37720 ft | 471 kts | 228° |
| 2026-05-08 01:05 | 25.50655 | 62.52849 | 37720 ft | 471 kts | 228° |
| 2026-05-08 01:05 | 25.45996 | 62.47751 | 37722 ft | 471 kts | 227° |
| 2026-05-08 01:06 | 25.41338 | 62.42660 | 37718 ft | 471 kts | 227° |
| 2026-05-08 01:06 | 25.36679 | 62.37574 | 37715 ft | 470 kts | 227° |
| 2026-05-08 01:07 | 25.32021 | 62.32495 | 37717 ft | 470 kts | 227° |
| 2026-05-08 01:07 | 25.27358 | 62.27415 | 37710 ft | 470 kts | 227° |
| 2026-05-08 01:08 | 25.23488 | 62.23204 | 37708 ft | 470 kts | 227° |
| 2026-05-08 01:08 | 25.18037 | 62.17280 | 37713 ft | 470 kts | 227° |
| 2026-05-08 01:09 | 25.13403 | 62.12249 | 37712 ft | 470 kts | 227° |
| 2026-05-08 01:09 | 25.08733 | 62.07186 | 37711 ft | 470 kts | 227° |
| 2026-05-08 01:10 | 25.04059 | 62.02123 | 37707 ft | 471 kts | 227° |
| 2026-05-08 01:10 | 24.99382 | 61.97063 | 37710 ft | 471 kts | 227° |
| 2026-05-08 01:11 | 24.94703 | 61.92007 | 37714 ft | 471 kts | 227° |
| 2026-05-08 01:11 | 24.90045 | 61.86979 | 37703 ft | 471 kts | 227° |
| 2026-05-08 01:12 | 24.85363 | 61.81930 | 37704 ft | 471 kts | 227° |
| 2026-05-08 01:12 | 24.80676 | 61.76882 | 37731 ft | 471 kts | 227° |
| 2026-05-08 01:13 | 24.75981 | 61.71831 | 37721 ft | 472 kts | 227° |
| 2026-05-08 01:13 | 24.71284 | 61.66783 | 37709 ft | 472 kts | 227° |
| 2026-05-08 01:14 | 24.66588 | 61.61743 | 37707 ft | 472 kts | 227° |
| 2026-05-08 01:14 | 24.61884 | 61.56698 | 37710 ft | 472 kts | 227° |
| 2026-05-08 01:15 | 24.57182 | 61.51661 | 37729 ft | 472 kts | 226° |
| 2026-05-08 01:15 | 24.52478 | 61.46628 | 37730 ft | 472 kts | 226° |
| 2026-05-08 01:16 | 24.47771 | 61.41595 | 37722 ft | 472 kts | 226° |
| 2026-05-08 01:16 | 24.43099 | 61.36528 | 37702 ft | 470 kts | 231° |
| 2026-05-08 01:17 | 24.39700 | 61.30540 | 37733 ft | 465 kts | 248° |
| 2026-05-08 01:17 | 24.37873 | 61.23765 | 37737 ft | 463 kts | 258° |
| 2026-05-08 01:18 | 24.36507 | 61.16850 | 37731 ft | 465 kts | 258° |
| 2026-05-08 01:18 | 24.35119 | 61.09916 | 37723 ft | 466 kts | 258° |
| 2026-05-08 01:19 | 24.33688 | 61.02978 | 37720 ft | 467 kts | 258° |
| 2026-05-08 01:19 | 24.32234 | 60.96033 | 37720 ft | 468 kts | 258° |
| 2026-05-08 01:20 | 24.31018 | 60.90253 | 37729 ft | 468 kts | 258° |
| 2026-05-08 01:20 | 24.29552 | 60.83291 | 37731 ft | 468 kts | 258° |
| 2026-05-08 01:21 | 24.28083 | 60.76326 | 37731 ft | 468 kts | 258° |
| 2026-05-08 01:21 | 24.26613 | 60.69368 | 37721 ft | 468 kts | 257° |
| 2026-05-08 01:22 | 24.25140 | 60.62414 | 37724 ft | 468 kts | 257° |
| 2026-05-08 01:22 | 24.23674 | 60.55513 | 37728 ft | 468 kts | 257° |
| 2026-05-08 01:23 | 24.22195 | 60.48565 | 37736 ft | 468 kts | 257° |
| 2026-05-08 01:23 | 24.20715 | 60.41623 | 37718 ft | 468 kts | 257° |
| 2026-05-08 01:24 | 24.19229 | 60.34678 | 37742 ft | 468 kts | 257° |
| 2026-05-08 01:24 | 24.17740 | 60.27729 | 37728 ft | 468 kts | 257° |
| 2026-05-08 01:25 | 24.16248 | 60.20785 | 37737 ft | 468 kts | 257° |
| 2026-05-08 01:25 | 24.14753 | 60.13842 | 37740 ft | 469 kts | 257° |
| 2026-05-08 01:26 | 24.13252 | 60.06890 | 37746 ft | 469 kts | 257° |
| 2026-05-08 01:26 | 24.11748 | 59.99940 | 37739 ft | 469 kts | 257° |
| 2026-05-08 01:27 | 24.10239 | 59.92981 | 37734 ft | 470 kts | 257° |
| 2026-05-08 01:27 | 24.08726 | 59.86021 | 37741 ft | 470 kts | 257° |
| 2026-05-08 01:28 | 24.07209 | 59.79059 | 37740 ft | 470 kts | 257° |
| 2026-05-08 01:28 | 24.05688 | 59.72095 | 37739 ft | 470 kts | 257° |
| 2026-05-08 01:29 | 24.04174 | 59.65176 | 37743 ft | 471 kts | 257° |
| 2026-05-08 01:29 | 24.02647 | 59.58215 | 37732 ft | 471 kts | 257° |
| 2026-05-08 01:30 | 24.01114 | 59.51246 | 37745 ft | 471 kts | 257° |
| 2026-05-08 01:30 | 23.99578 | 59.44274 | 37751 ft | 471 kts | 257° |
| 2026-05-08 01:31 | 23.98040 | 59.37310 | 37740 ft | 471 kts | 257° |
| 2026-05-08 01:31 | 23.96498 | 59.30343 | 37743 ft | 471 kts | 256° |
| 2026-05-08 01:32 | 23.94953 | 59.23378 | 37751 ft | 471 kts | 256° |
| 2026-05-08 01:32 | 23.93669 | 59.16366 | 37747 ft | 470 kts | 267° |
| 2026-05-08 01:33 | 23.94203 | 59.09255 | 37754 ft | 471 kts | 282° |
| 2026-05-08 01:33 | 23.96282 | 59.02450 | 37760 ft | 473 kts | 289° |
| 2026-05-08 01:34 | 23.98541 | 58.95729 | 37753 ft | 474 kts | 289° |
| 2026-05-08 01:34 | 24.00763 | 58.88932 | 37765 ft | 475 kts | 288° |
| 2026-05-08 01:35 | 24.02948 | 58.82113 | 37761 ft | 475 kts | 288° |
| 2026-05-08 01:35 | 24.05125 | 58.75289 | 37762 ft | 475 kts | 288° |
| 2026-05-08 01:36 | 24.07301 | 58.68465 | 37755 ft | 474 kts | 288° |
| 2026-05-08 01:36 | 24.09471 | 58.61652 | 37751 ft | 474 kts | 288° |
| 2026-05-08 01:37 | 24.11638 | 58.54835 | 37758 ft | 474 kts | 288° |
| 2026-05-08 01:37 | 24.13797 | 58.48015 | 37754 ft | 473 kts | 288° |
| 2026-05-08 01:38 | 24.15950 | 58.41200 | 37770 ft | 473 kts | 288° |
| 2026-05-08 01:38 | 24.18097 | 58.34389 | 37763 ft | 473 kts | 288° |
| 2026-05-08 01:39 | 24.20232 | 58.27609 | 37768 ft | 473 kts | 288° |
| 2026-05-08 01:39 | 24.22374 | 58.20796 | 37768 ft | 473 kts | 288° |
| 2026-05-08 01:40 | 24.24514 | 58.13975 | 37774 ft | 474 kts | 287° |
| 2026-05-08 01:40 | 24.26657 | 58.07132 | 37760 ft | 474 kts | 287° |
| 2026-05-08 01:41 | 24.28794 | 58.00297 | 37760 ft | 474 kts | 287° |
| 2026-05-08 01:41 | 24.30930 | 57.93451 | 37759 ft | 474 kts | 287° |
| 2026-05-08 01:42 | 24.33065 | 57.86601 | 37764 ft | 474 kts | 287° |
| 2026-05-08 01:42 | 24.35193 | 57.79757 | 37764 ft | 474 kts | 287° |
| 2026-05-08 01:43 | 24.37301 | 57.72966 | 37770 ft | 474 kts | 287° |
| 2026-05-08 01:43 | 24.39424 | 57.66115 | 37769 ft | 473 kts | 287° |
| 2026-05-08 01:44 | 24.41539 | 57.59277 | 37773 ft | 473 kts | 287° |
| 2026-05-08 01:44 | 24.43649 | 57.52443 | 37769 ft | 473 kts | 287° |
| 2026-05-08 01:45 | 24.45758 | 57.45609 | 37769 ft | 472 kts | 287° |
| 2026-05-08 01:45 | 24.47867 | 57.38775 | 37773 ft | 472 kts | 287° |
| 2026-05-08 01:46 | 24.49971 | 57.31944 | 37776 ft | 472 kts | 287° |
| 2026-05-08 01:46 | 24.52072 | 57.25105 | 37746 ft | 470 kts | 287° |
| 2026-05-08 01:46 | 24.53108 | 57.21732 | 37472 ft | 462 kts | 287° |
| 2026-05-08 01:47 | 24.54130 | 57.18401 | 36838 ft | 460 kts | 287° |
| 2026-05-08 01:47 | 24.55155 | 57.15052 | 35855 ft | 466 kts | 287° |
| 2026-05-08 01:47 | 24.56196 | 57.11646 | 34808 ft | 474 kts | 287° |
| 2026-05-08 01:48 | 24.58321 | 57.04686 | 32691 ft | 485 kts | 287° |
| 2026-05-08 01:48 | 24.59397 | 57.01161 | 31645 ft | 487 kts | 287° |
| 2026-05-08 01:48 | 24.60477 | 56.97623 | 30609 ft | 489 kts | 287° |
| 2026-05-08 01:48 | 24.61559 | 56.94074 | 29735 ft | 488 kts | 287° |
| 2026-05-08 01:49 | 24.62624 | 56.90580 | 28893 ft | 472 kts | 287° |
| 2026-05-08 01:49 | 24.63646 | 56.87251 | 27592 ft | 462 kts | 288° |
| 2026-05-08 01:49 | 24.64871 | 56.83952 | 26107 ft | 459 kts | 293° |
| 2026-05-08 01:49 | 24.66334 | 56.80894 | 24703 ft | 459 kts | 300° |
| 2026-05-08 01:50 | 24.68025 | 56.77908 | 24112 ft | 456 kts | 301° |
| 2026-05-08 01:50 | 24.69693 | 56.74943 | 23445 ft | 454 kts | 300° |
| 2026-05-08 01:50 | 24.71339 | 56.71981 | 22714 ft | 452 kts | 300° |
| 2026-05-08 01:50 | 24.72965 | 56.69035 | 21865 ft | 451 kts | 300° |
| 2026-05-08 01:51 | 24.74598 | 56.66063 | 20990 ft | 453 kts | 301° |
| 2026-05-08 01:51 | 24.76221 | 56.63103 | 20297 ft | 450 kts | 301° |
| 2026-05-08 01:51 | 24.77833 | 56.60163 | 19664 ft | 446 kts | 301° |
| 2026-05-08 01:51 | 24.79430 | 56.57250 | 19023 ft | 443 kts | 301° |
| 2026-05-08 01:52 | 24.81017 | 56.54354 | 18385 ft | 440 kts | 301° |
| 2026-05-08 01:52 | 24.82593 | 56.51476 | 17692 ft | 438 kts | 301° |
| 2026-05-08 01:52 | 24.84160 | 56.48616 | 16999 ft | 434 kts | 301° |
| 2026-05-08 01:52 | 24.85711 | 56.45782 | 16355 ft | 430 kts | 301° |
| 2026-05-08 01:53 | 24.87161 | 56.42976 | 15721 ft | 423 kts | 295° |
| 2026-05-08 01:53 | 24.88112 | 56.39933 | 15109 ft | 420 kts | 282° |
| 2026-05-08 01:53 | 24.88518 | 56.36762 | 14491 ft | 417 kts | 271° |
| 2026-05-08 01:53 | 24.88385 | 56.33593 | 13921 ft | 412 kts | 263° |
| 2026-05-08 01:54 | 24.88110 | 56.30470 | 13381 ft | 408 kts | 263° |
| 2026-05-08 01:54 | 24.88030 | 56.27378 | 12745 ft | 405 kts | 274° |
| 2026-05-08 01:54 | 24.88343 | 56.25321 | 12508 ft | 400 kts | 283° |
| 2026-05-08 01:54 | 24.89661 | 56.21561 | 12092 ft | 395 kts | 297° |
| 2026-05-08 01:55 | 24.91031 | 56.18937 | 11537 ft | 395 kts | 300° |
| 2026-05-08 01:55 | 24.92410 | 56.16325 | 11024 ft | 392 kts | 300° |
| 2026-05-08 01:55 | 24.93739 | 56.13770 | 10869 ft | 377 kts | 299° |
| 2026-05-08 01:55 | 24.95011 | 56.11294 | 10678 ft | 365 kts | 299° |
| 2026-05-08 01:56 | 24.96230 | 56.08906 | 10541 ft | 347 kts | 299° |
| 2026-05-08 01:56 | 24.97348 | 56.06663 | 10374 ft | 320 kts | 295° |
| 2026-05-08 01:56 | 24.98152 | 56.04477 | 10247 ft | 296 kts | 288° |
| 2026-05-08 01:56 | 24.98775 | 56.02364 | 10140 ft | 285 kts | 286° |
| 2026-05-08 01:57 | 24.99353 | 56.00308 | 10023 ft | 277 kts | 287° |
| 2026-05-08 01:57 | 24.99926 | 55.98285 | 9741 ft | 276 kts | 287° |
| 2026-05-08 01:57 | 25.00506 | 55.96268 | 9420 ft | 275 kts | 287° |
| 2026-05-08 01:57 | 25.01090 | 55.94260 | 9089 ft | 275 kts | 287° |
| 2026-05-08 01:58 | 25.01677 | 55.92258 | 8778 ft | 274 kts | 288° |
| 2026-05-08 01:58 | 25.02268 | 55.90258 | 8461 ft | 274 kts | 288° |
| 2026-05-08 01:58 | 25.02659 | 55.88939 | 8255 ft | 274 kts | 288° |
| 2026-05-08 01:58 | 25.03453 | 55.86270 | 7836 ft | 273 kts | 288° |
| 2026-05-08 01:59 | 25.04044 | 55.84283 | 7524 ft | 273 kts | 288° |
| 2026-05-08 01:59 | 25.04636 | 55.82295 | 7210 ft | 272 kts | 288° |
| 2026-05-08 01:59 | 25.05027 | 55.80981 | 6989 ft | 272 kts | 288° |
| 2026-05-08 01:59 | 25.05811 | 55.78352 | 6573 ft | 272 kts | 288° |
| 2026-05-08 02:00 | 25.06402 | 55.76365 | 6259 ft | 272 kts | 288° |
| 2026-05-08 02:00 | 25.06796 | 55.75040 | 6154 ft | 263 kts | 288° |
| 2026-05-08 02:00 | 25.07346 | 55.73194 | 6001 ft | 244 kts | 288° |
| 2026-05-08 02:00 | 25.08010 | 55.70966 | 5838 ft | 217 kts | 287° |
| 2026-05-08 02:01 | 25.08461 | 55.69447 | 5805 ft | 201 kts | 287° |
| 2026-05-08 02:01 | 25.08898 | 55.67977 | 5579 ft | 203 kts | 287° |
| 2026-05-08 02:01 | 25.09333 | 55.66510 | 5375 ft | 198 kts | 287° |
| 2026-05-08 02:01 | 25.09759 | 55.65077 | 5110 ft | 196 kts | 287° |
| 2026-05-08 02:02 | 25.10073 | 55.64145 | 4890 ft | 196 kts | 292° |
| 2026-05-08 02:02 | 25.10706 | 55.62821 | 4591 ft | 194 kts | 297° |
| 2026-05-08 02:02 | 25.11384 | 55.61557 | 4327 ft | 189 kts | 298° |
| 2026-05-08 02:02 | 25.12065 | 55.60318 | 4071 ft | 185 kts | 298° |
| 2026-05-08 02:03 | 25.12739 | 55.59096 | 3843 ft | 188 kts | 299° |
| 2026-05-08 02:03 | 25.13419 | 55.57871 | 3603 ft | 184 kts | 299° |
| 2026-05-08 02:03 | 25.14077 | 55.56685 | 3365 ft | 178 kts | 299° |
| 2026-05-08 02:03 | 25.14702 | 55.55558 | 3157 ft | 171 kts | 299° |
| 2026-05-08 02:04 | 25.15312 | 55.54455 | 2968 ft | 169 kts | 299° |
| 2026-05-08 02:04 | 25.15928 | 55.53342 | 2754 ft | 169 kts | 300° |
| 2026-05-08 02:04 | 25.16537 | 55.52243 | 2538 ft | 164 kts | 300° |
| 2026-05-08 02:04 | 25.17115 | 55.51201 | 2315 ft | 155 kts | 300° |
| 2026-05-08 02:05 | 25.17670 | 55.50198 | 2149 ft | 149 kts | 300° |
| 2026-05-08 02:05 | 25.18189 | 55.49261 | 1964 ft | 139 kts | 300° |
| 2026-05-08 02:05 | 25.18693 | 55.48350 | 1784 ft | 139 kts | 300° |
| 2026-05-08 02:05 | 25.19197 | 55.47439 | 1620 ft | 139 kts | 300° |
| 2026-05-08 02:06 | 25.19697 | 55.46537 | 1441 ft | 140 kts | 300° |
| 2026-05-08 02:06 | 25.20205 | 55.45619 | 1266 ft | 141 kts | 300° |
| 2026-05-08 02:06 | 25.20718 | 55.44694 | 1083 ft | 142 kts | 301° |
| 2026-05-08 02:06 | 25.21228 | 55.43771 | 911 ft | 144 kts | 300° |
| 2026-05-08 02:07 | 25.21750 | 55.42827 | 749 ft | 147 kts | 300° |
| 2026-05-08 02:07 | 25.22276 | 55.41859 | 570 ft | 146 kts | 300° |
| 2026-05-08 02:07 | 25.22813 | 55.40896 | 369 ft | 148 kts | 299° |
| 2026-05-08 02:07 | 25.23348 | 55.39928 | 154 ft | 146 kts | 299° |
| 2026-05-08 02:08 | 25.23873 | 55.38981 | 36 ft | 139 kts | 299° |
| 2026-05-08 02:08 | 25.24318 | 55.38173 | 32 ft | 104 kts | 302° |
| 2026-05-08 02:08 | 25.24613 | 55.37642 | 27 ft | 60 kts | 301° |
| 2026-05-08 02:08 | 25.24742 | 55.37382 | 28 ft | 23 kts | 291° |
| 2026-05-08 02:09 | 25.24782 | 55.37224 | 29 ft | 19 kts | 275° |
| 2026-05-08 02:09 | 25.24785 | 55.37083 | 28 ft | 16 kts | 271° |
| 2026-05-08 02:09 | 25.24795 | 55.36979 | 27 ft | 14 kts | 283° |
| 2026-05-08 02:09 | 25.24834 | 55.36884 | 27 ft | 14 kts | 296° |
| 2026-05-08 02:10 | 25.24862 | 55.36781 | 27 ft | 14 kts | 280° |
| 2026-05-08 02:10 | 25.24890 | 55.36678 | 26 ft | 14 kts | 292° |
| 2026-05-08 02:10 | 25.24938 | 55.36584 | 26 ft | 14 kts | 302° |
| 2026-05-08 02:10 | 25.24989 | 55.36493 | 26 ft | 14 kts | 301° |
| 2026-05-08 02:11 | 25.25040 | 55.36401 | 26 ft | 14 kts | 301° |
| 2026-05-08 02:11 | 25.25093 | 55.36306 | 26 ft | 15 kts | 301° |
| 2026-05-08 02:11 | 25.25148 | 55.36206 | 26 ft | 15 kts | 303° |
| 2026-05-08 02:11 | 25.25206 | 55.36106 | 26 ft | 15 kts | 302° |
| 2026-05-08 02:12 | 25.25263 | 55.36005 | 31 ft | 15 kts | 302° |
| 2026-05-08 02:12 | 25.25319 | 55.35905 | 27 ft | 15 kts | 302° |
| 2026-05-08 02:12 | 25.25376 | 55.35804 | 30 ft | 15 kts | 302° |
| 2026-05-08 02:12 | 25.25426 | 55.35716 | 29 ft | 8 kts | 302° |
| 2026-05-08 02:13 | 25.25432 | 55.35676 | 29 ft | 5 kts | 237° |
| 2026-05-08 02:13 | 25.25396 | 55.35649 | 31 ft | 7 kts | 211° |
| 2026-05-08 02:13 | 25.25352 | 55.35620 | 30 ft | 8 kts | 211° |
| 2026-05-08 02:13 | 25.25314 | 55.35594 | 29 ft | 4 kts | 211° |
| 2026-05-08 02:14 | 25.25292 | 55.35580 | 29 ft | 2 kts | 211° |
| 2026-05-08 02:14 | 25.25285 | 55.35574 | 29 ft | 0 kts | 211° |
| 2026-05-08 02:14 | 25.25284 | 55.35574 | 29 ft | 0 kts | 211° |